Time;durP1;ratioP1;P1;durP2;ratioP2;P2;SDS_P1;SDS_P2;PMS_P1;PMS_P2;Temp;Humidity;BMP_temperature;BMP_pressure;BME280_temperature;BME280_humidity;BME280_pressure;Samples;Min_cycle;Max_cycle;Signal;HPM_P1;HPM_P2
2021/06/29 00:00:11;;;;;;;7.20;5.70;;;;;;;20.34;64.84;100846.16;5057368;28;20028;-73
2021/06/29 00:02:37;;;;;;;8.52;5.65;;;;;;;20.48;64.66;100834.97;5057171;28;20113;-73
2021/06/29 00:05:02;;;;;;;7.45;5.75;;;;;;;20.17;65.55;100825.03;5057308;28;20028;-73
2021/06/29 00:07:28;;;;;;;7.45;6.40;;;;;;;20.06;66.05;100832.75;5075357;28;20070;-73
2021/06/29 00:09:54;;;;;;;9.30;5.78;;;;;;;19.93;66.23;100836.06;5075021;28;20406;-73
2021/06/29 00:12:19;;;;;;;7.20;5.78;;;;;;;20.07;65.94;100839.72;5074883;28;20054;-74
2021/06/29 00:14:45;;;;;;;8.27;5.85;;;;;;;20.06;66.26;100832.75;5074662;28;20024;-73
2021/06/29 00:17:11;;;;;;;7.55;5.90;;;;;;;20.05;66.32;100836.22;5073806;28;20024;-75
2021/06/29 00:19:37;;;;;;;6.22;5.47;;;;;;;20.17;65.86;100839.84;5057052;28;20028;-74
2021/06/29 00:22:03;;;;;;;8.40;6.25;;;;;;;20.36;65.37;100847.06;5056918;28;20060;-73
2021/06/29 00:24:29;;;;;;;6.40;4.85;;;;;;;20.40;65.33;100833.16;5056889;28;20100;-73
2021/06/29 00:26:55;;;;;;;8.57;6.10;;;;;;;20.43;65.50;100838.41;5056792;28;20052;-73
2021/06/29 00:29:20;;;;;;;9.90;5.40;;;;;;;20.48;65.41;100834.97;5056406;28;20021;-73
2021/06/29 00:31:45;;;;;;;7.95;5.60;;;;;;;20.49;65.65;100834.13;5056541;28;20103;-73
2021/06/29 00:34:11;;;;;;;7.43;5.30;;;;;;;20.48;65.36;100840.19;5056745;28;20107;-74
2021/06/29 00:36:37;;;;;;;6.75;5.22;;;;;;;20.46;65.72;100841.94;5056750;28;20513;-73
2021/06/29 00:39:03;;;;;;;9.23;5.90;;;;;;;20.27;66.01;100839.09;5056497;28;20025;-73
2021/06/29 00:41:29;;;;;;;9.77;6.25;;;;;;;20.37;65.93;100827.88;5074640;28;20051;-73
2021/06/29 00:43:55;;;;;;;8.38;6.18;;;;;;;20.10;66.42;100829.31;5056470;28;20458;-74
2021/06/29 00:46:20;;;;;;;8.98;5.90;;;;;;;20.14;66.76;100831.09;5074352;28;20028;-73
2021/06/29 00:48:47;;;;;;;8.02;6.70;;;;;;;20.25;66.33;100838.19;5056360;28;20048;-73
2021/06/29 00:51:15;;;;;;;7.25;6.32;;;;;;;20.24;66.30;100836.44;5056618;28;20449;-73
2021/06/29 00:53:42;;;;;;;7.32;6.57;;;;;;;20.29;66.70;100840.88;5056586;28;20052;-74
2021/06/29 00:56:14;;;;;;;15.55;6.07;;;;;;;20.23;66.79;100839.91;5056075;28;20025;-72
2021/06/29 00:58:44;;;;;;;7.95;6.18;;;;;;;19.91;67.51;100833.41;5074150;28;20028;-73
2021/06/29 01:01:10;;;;;;;7.57;5.97;;;;;;;20.23;67.57;100839.91;5056171;28;20138;-73
2021/06/29 01:03:40;;;;;;;7.90;6.50;;;;;;;20.03;67.22;100837.94;5056181;28;20028;-72
2021/06/29 01:06:07;;;;;;;7.95;6.38;;;;;;;20.10;67.18;100834.53;5056088;28;20035;-73
2021/06/29 01:08:33;;;;;;;8.30;6.18;;;;;;;20.18;67.08;100841.59;5056282;28;20029;-73
2021/06/29 01:10:58;;;;;;;8.25;7.13;;;;;;;19.84;68.25;100842.88;5072503;28;20438;-72
2021/06/29 01:13:39;;;;;;;8.88;5.93;;;;;;;20.11;67.96;100836.28;5073900;28;20028;-73
2021/06/29 01:16:06;;;;;;;9.55;6.82;;;;;;;20.00;68.12;100832.66;5055758;28;20048;-72
2021/06/29 01:18:36;;;;;;;8.77;6.90;;;;;;;19.95;68.20;100829.09;5073352;28;20020;-73
2021/06/29 01:21:03;;;;;;;9.27;6.43;;;;;;;20.02;67.99;100841.41;5073654;28;20024;-73
2021/06/29 01:23:29;;;;;;;7.63;6.20;;;;;;;20.12;67.95;100842.38;5055893;28;20020;-73
2021/06/29 01:26:15;;;;;;;9.70;6.20;;;;;;;20.04;68.36;100839.69;5055622;28;20020;-73
2021/06/29 01:29:03;;;;;;;9.52;6.53;;;;;;;20.07;67.85;100833.59;5056631;28;20050;-72
2021/06/29 01:31:30;;;;;;;7.65;6.75;;;;;;;20.03;68.46;100830.09;5073264;28;20039;-73
2021/06/29 01:33:56;;;;;;;8.20;6.75;;;;;;;20.01;68.14;100823.97;5055536;28;20090;-74
2021/06/29 01:36:24;;;;;;;8.40;6.20;;;;;;;19.96;68.41;100828.25;5038991;28;20024;-74
2021/06/29 01:38:50;;;;;;;9.50;7.13;;;;;;;19.74;69.38;100825.31;5038736;28;20020;-73
2021/06/29 01:41:20;;;;;;;7.63;6.10;;;;;;;19.91;69.33;100816.84;5073274;28;20105;-72
2021/06/29 01:43:50;;;;;;;7.40;6.03;;;;;;;19.97;68.84;100824.78;5073265;28;20025;-72
2021/06/29 01:46:16;;;;;;;7.40;6.20;;;;;;;19.93;69.45;100815.13;5073193;28;20024;-74
2021/06/29 01:48:50;;;;;;;10.07;6.40;;;;;;;19.83;69.24;100812.38;5073295;28;20024;-73
2021/06/29 01:51:17;;;;;;;11.60;6.78;;;;;;;19.87;69.04;100809.78;5055256;28;20363;-73
2021/06/29 01:53:45;;;;;;;10.10;7.20;;;;;;;19.84;69.44;100801.06;5073251;28;20028;-73
2021/06/29 01:56:18;;;;;;;10.73;6.32;;;;;;;19.82;69.61;100807.09;5071949;28;20024;-73
2021/06/29 01:58:52;;;;;;;8.07;6.20;;;;;;;19.78;70.03;100800.97;5045417;28;20029;-74
2021/06/29 02:01:19;;;;;;;7.72;6.40;;;;;;;19.70;70.29;100800.00;5044138;28;20496;-73
2021/06/29 02:03:44;;;;;;;9.05;7.05;;;;;;;19.67;70.37;100803.44;5051560;28;20036;-74
2021/06/29 02:06:10;;;;;;;7.63;6.53;;;;;;;19.74;70.32;100793.94;5051854;28;20025;-75
2021/06/29 02:08:36;;;;;;;9.60;7.00;;;;;;;19.73;70.06;100794.81;5051961;28;20036;-74
2021/06/29 02:11:02;;;;;;;10.25;6.78;;;;;;;19.71;70.39;100799.13;5052958;28;20403;-73
2021/06/29 02:13:27;;;;;;;7.78;6.15;;;;;;;19.71;70.53;100800.00;5052799;28;20028;-73
2021/06/29 02:15:55;;;;;;;11.35;6.90;;;;;;;19.69;70.51;100795.63;5052514;28;20045;-74
2021/06/29 02:18:21;;;;;;;10.50;6.70;;;;;;;19.64;70.83;100797.28;5051538;28;20025;-70
2021/06/29 02:20:47;;;;;;;10.32;7.50;;;;;;;19.72;70.49;100811.34;5052696;28;20375;-71
2021/06/29 02:23:12;;;;;;;8.98;6.90;;;;;;;19.70;70.89;100807.84;5052845;28;20033;-70
2021/06/29 02:25:38;;;;;;;9.13;7.05;;;;;;;19.73;70.71;100797.41;5052741;28;20020;-70
2021/06/29 02:28:03;;;;;;;9.55;7.05;;;;;;;19.70;70.88;100792.16;5052713;28;20032;-71
2021/06/29 02:30:28;;;;;;;9.27;7.13;;;;;;;19.72;71.00;100790.44;5052681;28;20017;-70
2021/06/29 02:32:54;;;;;;;8.93;7.05;;;;;;;19.65;71.21;100793.81;5052566;28;20463;-70
2021/06/29 02:35:19;;;;;;;10.95;6.43;;;;;;;19.61;71.05;100786.75;5034693;28;20112;-70
2021/06/29 02:37:51;;;;;;;10.32;7.28;;;;;;;19.55;71.68;100783.22;5034433;28;20044;-70
2021/06/29 02:40:17;;;;;;;9.95;7.15;;;;;;;19.54;71.71;100786.69;5054309;28;20057;-70
2021/06/29 02:42:42;;;;;;;10.98;6.95;;;;;;;19.60;71.33;100785.00;5053694;28;20438;-70
2021/06/29 02:45:08;;;;;;;9.60;6.95;;;;;;;19.53;71.67;100787.53;5054705;28;20146;-69
2021/06/29 02:47:36;;;;;;;7.75;6.53;;;;;;;19.52;71.62;100774.47;5038727;28;20104;-69
2021/06/29 02:50:04;;;;;;;13.35;7.43;;;;;;;19.46;71.89;100777.84;5059245;28;20029;-69
2021/06/29 02:52:32;;;;;;;9.63;7.53;;;;;;;19.42;72.08;100770.84;5067294;28;20021;-69
2021/06/29 02:54:58;;;;;;;9.30;7.97;;;;;;;19.38;72.17;100774.25;5056103;28;20420;-73
2021/06/29 02:57:24;;;;;;;12.18;7.88;;;;;;;19.44;72.00;100769.13;5065410;28;20019;-75
2021/06/29 02:59:49;;;;;;;9.82;6.82;;;;;;;19.41;72.05;100769.97;5049501;28;20396;-74
2021/06/29 03:02:15;;;;;;;10.52;7.15;;;;;;;19.43;72.33;100767.38;5064985;28;20029;-73
2021/06/29 03:04:40;;;;;;;9.98;7.22;;;;;;;19.46;72.38;100772.63;5056286;28;20027;-73
2021/06/29 03:07:05;;;;;;;16.02;8.05;;;;;;;19.49;71.80;100762.22;5066401;28;20078;-73
2021/06/29 03:09:31;;;;;;;9.68;7.07;;;;;;;19.49;71.93;100764.84;5055023;28;20024;-73
2021/06/29 03:11:56;;;;;;;8.90;6.97;;;;;;;19.44;72.44;100763.03;5066100;28;20019;-74
2021/06/29 03:14:22;;;;;;;8.40;6.75;;;;;;;19.40;72.71;100756.88;5056330;28;20032;-73
2021/06/29 03:16:47;;;;;;;12.75;7.60;;;;;;;19.37;72.76;100756.81;5056579;28;20044;-74
2021/06/29 03:19:13;;;;;;;9.70;6.95;;;;;;;19.38;72.97;100758.59;5055498;28;20033;-73
2021/06/29 03:21:38;;;;;;;11.18;7.50;;;;;;;19.39;72.61;100744.66;5072306;28;20052;-74
2021/06/29 03:24:05;;;;;;;11.10;7.60;;;;;;;19.37;72.89;100754.22;5057962;28;20027;-72
2021/06/29 03:26:32;;;;;;;9.55;7.88;;;;;;;19.34;73.00;100751.56;5075300;28;20025;-73
2021/06/29 03:28:58;;;;;;;8.65;7.30;;;;;;;19.30;73.36;100744.53;5075737;28;20023;-73
2021/06/29 03:31:24;;;;;;;9.98;7.68;;;;;;;19.43;72.82;100746.47;5057845;28;20048;-74
2021/06/29 03:33:49;;;;;;;9.20;7.60;;;;;;;19.36;72.92;100749.84;5057818;28;20103;-73
2021/06/29 03:36:14;;;;;;;14.60;9.18;;;;;;;19.32;73.21;100748.03;5057786;28;20055;-74
2021/06/29 03:38:40;;;;;;;10.25;7.90;;;;;;;19.34;73.24;100752.44;5057681;28;20032;-74
2021/06/29 03:41:05;;;;;;;11.55;7.88;;;;;;;19.33;73.13;100755.03;5075483;28;20036;-73
2021/06/29 03:43:36;;;;;;;8.85;7.53;;;;;;;19.44;73.00;100756.06;5075500;28;20028;-74
2021/06/29 03:46:02;;;;;;;9.18;7.40;;;;;;;19.59;72.75;100767.59;5075498;28;20374;-74
2021/06/29 03:48:28;;;;;;;12.27;7.90;;;;;;;19.61;72.52;100771.09;5057612;28;20501;-74
2021/06/29 03:50:54;;;;;;;10.10;7.70;;;;;;;19.52;72.71;100777.94;5056599;28;20029;-74
2021/06/29 03:53:20;;;;;;;9.13;7.40;;;;;;;19.70;71.63;100786.94;5057051;28;20035;-73
2021/06/29 03:55:45;;;;;;;10.68;8.23;;;;;;;19.69;71.79;100777.34;5075399;28;20473;-73
2021/06/29 03:58:10;;;;;;;8.52;7.30;;;;;;;19.73;71.97;100797.41;5075137;28;20497;-74
2021/06/29 04:00:36;;;;;;;8.02;7.03;;;;;;;19.69;71.98;100785.16;5057477;28;20032;-73
2021/06/29 04:03:02;;;;;;;12.05;7.35;;;;;;;19.78;72.08;100790.53;5056849;28;20024;-73
2021/06/29 04:05:28;;;;;;;10.15;7.57;;;;;;;19.75;71.75;100785.25;5075107;28;20029;-73
2021/06/29 04:07:53;;;;;;;10.07;7.43;;;;;;;19.91;72.09;100785.50;5075354;28;20032;-73
2021/06/29 04:10:19;;;;;;;8.48;7.43;;;;;;;19.94;71.50;100778.53;5074969;28;20035;-75
2021/06/29 04:12:44;;;;;;;10.45;7.53;;;;;;;19.97;71.30;100783.81;5074727;28;20111;-73
2021/06/29 04:15:10;;;;;;;12.95;8.55;;;;;;;19.90;71.55;100781.13;5056852;28;20049;-73
2021/06/29 04:17:37;;;;;;;10.75;7.93;;;;;;;19.93;71.51;100783.78;5057034;28;20091;-74
2021/06/29 04:20:05;;;;;;;14.25;8.23;;;;;;;19.79;72.40;100781.81;5056950;28;20066;-73
2021/06/29 04:22:30;;;;;;;11.27;7.95;;;;;;;20.00;71.34;100786.47;5056691;28;20031;-73
2021/06/29 04:24:57;;;;;;;10.35;8.25;;;;;;;19.84;72.25;100795.81;5056888;28;20107;-74
2021/06/29 04:27:23;;;;;;;11.68;8.30;;;;;;;20.00;71.66;100796.06;5074507;28;20036;-73
2021/06/29 04:29:50;;;;;;;11.82;8.80;;;;;;;19.93;71.76;100786.38;5074661;28;20577;-73
2021/06/29 04:32:16;;;;;;;11.00;8.68;;;;;;;20.00;71.64;100788.22;5052800;28;20112;-74
2021/06/29 04:34:42;;;;;;;11.60;8.40;;;;;;;20.08;71.48;100783.06;5053874;28;20028;-73
2021/06/29 04:37:07;;;;;;;16.88;8.68;;;;;;;20.16;70.75;100781.44;5054422;28;20027;-73
2021/06/29 04:39:33;;;;;;;12.27;8.25;;;;;;;20.25;70.81;100783.28;5055374;28;20016;-73
2021/06/29 04:41:59;;;;;;;13.82;9.02;;;;;;;20.31;70.82;100785.97;5055004;28;20025;-73
2021/06/29 04:44:24;;;;;;;10.70;8.23;;;;;;;20.25;70.43;100780.66;5053354;28;20067;-73
2021/06/29 04:46:51;;;;;;;12.77;8.82;;;;;;;20.34;70.81;100780.75;5054440;28;20013;-73
2021/06/29 04:49:18;;;;;;;14.65;8.55;;;;;;;20.43;70.67;100785.22;5063246;28;20016;-73
2021/06/29 04:51:44;;;;;;;12.20;8.75;;;;;;;20.48;70.76;100777.41;5048090;28;20020;-73
2021/06/29 04:54:09;;;;;;;13.05;8.40;;;;;;;20.59;70.05;100775.78;5056144;28;20028;-73
2021/06/29 04:56:35;;;;;;;14.38;9.05;;;;;;;20.53;70.34;100786.19;5039648;28;20028;-73
2021/06/29 04:59:02;;;;;;;10.23;7.88;;;;;;;20.71;70.41;100786.41;5074154;28;20040;-73
2021/06/29 05:01:29;;;;;;;11.38;8.25;;;;;;;20.59;70.51;100781.03;5056362;28;20028;-73
2021/06/29 05:03:55;;;;;;;10.90;8.43;;;;;;;20.74;70.62;100780.31;5055900;28;20028;-73
2021/06/29 05:06:21;;;;;;;12.65;8.65;;;;;;;20.91;69.70;100783.13;5056129;28;20074;-74
2021/06/29 05:08:47;;;;;;;10.02;7.95;;;;;;;21.00;69.95;100777.97;5056063;28;20029;-73
2021/06/29 05:11:14;;;;;;;14.32;8.18;;;;;;;21.11;69.02;100777.16;5056194;28;20035;-73
2021/06/29 05:13:40;;;;;;;13.43;8.60;;;;;;;20.96;69.64;100780.53;5055735;28;20497;-73
2021/06/29 05:16:06;;;;;;;15.73;8.45;;;;;;;20.93;69.66;100763.06;5055816;28;20127;-73
2021/06/29 05:18:31;;;;;;;12.13;7.85;;;;;;;21.02;69.27;100763.13;5055781;28;20031;-73
2021/06/29 05:20:57;;;;;;;11.70;8.70;;;;;;;21.26;69.24;100769.41;5072364;28;20028;-73
2021/06/29 05:23:23;;;;;;;13.80;8.25;;;;;;;21.39;69.20;100774.75;5055964;28;20035;-73
2021/06/29 05:26:08;;;;;;;12.57;8.40;;;;;;;21.42;68.36;100774.75;5080297;28;20094;-73
2021/06/29 05:28:33;;;;;;;13.55;8.35;;;;;;;21.52;67.98;100781.81;5073472;28;20025;-74
2021/06/29 05:30:59;;;;;;;12.93;10.02;;;;;;;20.98;69.44;100777.06;5072110;28;20523;-73
2021/06/29 05:33:24;;;;;;;13.32;9.23;;;;;;;21.00;69.99;100783.19;5055409;28;20025;-73
2021/06/29 05:35:50;;;;;;;12.23;8.68;;;;;;;21.25;69.12;100778.16;5073393;28;20028;-73
2021/06/29 05:38:15;;;;;;;13.52;8.82;;;;;;;21.50;68.20;100783.53;5073152;28;20116;-73
2021/06/29 05:40:40;;;;;;;11.57;8.10;;;;;;;21.59;68.27;100783.59;5073272;28;20036;-73
2021/06/29 05:43:06;;;;;;;9.50;7.75;;;;;;;21.70;67.90;100785.44;5054958;28;20020;-73
2021/06/29 05:45:32;;;;;;;12.20;8.05;;;;;;;21.54;68.05;100789.69;5073503;28;20032;-73
2021/06/29 05:47:58;;;;;;;11.65;7.65;;;;;;;21.65;67.94;100787.16;5055339;28;20386;-73
2021/06/29 05:50:24;;;;;;;12.40;9.07;;;;;;;21.52;67.80;100784.44;5055323;28;20020;-73
2021/06/29 05:52:50;;;;;;;17.30;10.43;;;;;;;21.68;66.64;100781.94;5073063;28;20129;-73
2021/06/29 05:55:15;;;;;;;10.75;8.07;;;;;;;21.73;67.03;100780.22;5071754;28;20112;-73
2021/06/29 05:57:41;;;;;;;11.82;7.60;;;;;;;21.99;66.53;100776.84;5055102;28;20059;-73
2021/06/29 06:00:10;;;;;;;11.60;7.53;;;;;;;21.80;66.55;100782.03;5073355;28;20020;-73
2021/06/29 06:02:36;;;;;;;9.90;7.53;;;;;;;22.06;66.94;100789.13;5054965;28;20033;-73
2021/06/29 06:05:01;;;;;;;15.13;8.07;;;;;;;22.08;66.84;100787.38;5055263;28;20048;-73
2021/06/29 06:07:27;;;;;;;9.15;7.40;;;;;;;22.49;65.47;100792.78;5055000;28;20388;-73
2021/06/29 06:09:52;;;;;;;11.05;8.00;;;;;;;22.57;65.09;100804.16;5055025;28;20032;-74
2021/06/29 06:12:17;;;;;;;15.73;7.85;;;;;;;22.85;63.90;100791.09;5072776;28;20020;-74
2021/06/29 06:14:43;;;;;;;14.18;7.78;;;;;;;23.02;64.34;100785.84;5071846;28;20148;-73
2021/06/29 06:17:08;;;;;;;10.63;7.53;;;;;;;23.07;62.97;100783.22;5072616;28;20082;-73
2021/06/29 06:19:34;;;;;;;9.70;7.63;;;;;;;23.11;63.34;100787.59;5054731;28;20024;-73
2021/06/29 06:21:59;;;;;;;11.65;8.15;;;;;;;22.89;63.86;100787.59;5072256;28;20017;-73
2021/06/29 06:24:25;;;;;;;14.27;9.27;;;;;;;23.23;63.43;100782.34;5071610;28;20027;-73
2021/06/29 06:26:51;;;;;;;13.52;10.15;;;;;;;23.31;62.99;100791.13;5072621;28;20513;-73
2021/06/29 06:29:16;;;;;;;9.27;8.38;;;;;;;23.23;63.68;100784.97;5054807;28;20021;-73
2021/06/29 06:31:42;;;;;;;15.43;8.35;;;;;;;23.22;63.30;100791.09;5054594;28;20103;-73
2021/06/29 06:34:07;;;;;;;11.73;7.70;;;;;;;23.09;62.81;100784.09;5071381;28;20024;-73
2021/06/29 06:36:33;;;;;;;14.50;7.90;;;;;;;22.88;63.79;100791.97;5054766;28;20063;-73
2021/06/29 06:38:58;;;;;;;13.10;8.50;;;;;;;22.86;63.78;100782.34;5072497;28;20431;-73
2021/06/29 06:41:23;;;;;;;8.90;7.65;;;;;;;23.17;63.17;100777.09;5072457;28;20028;-74
2021/06/29 06:43:49;;;;;;;12.90;7.63;;;;;;;23.25;63.75;100772.72;5072566;28;20032;-73
2021/06/29 06:46:15;;;;;;;10.88;8.02;;;;;;;23.04;63.36;100771.84;5054730;28;20507;-73
2021/06/29 06:48:42;;;;;;;12.23;8.27;;;;;;;22.85;64.31;100776.22;5037782;28;20027;-73
2021/06/29 06:51:08;;;;;;;15.80;8.73;;;;;;;22.81;63.74;100768.34;5054607;28;20025;-73
2021/06/29 06:53:34;;;;;;;12.43;8.25;;;;;;;23.10;63.45;100770.09;5054210;28;20025;-75
2021/06/29 06:55:59;;;;;;;12.48;10.18;;;;;;;23.11;62.99;100782.34;5054665;28;20020;-74
2021/06/29 06:58:25;;;;;;;15.23;8.95;;;;;;;23.12;63.02;100770.97;5054449;28;20119;-74
2021/06/29 07:00:52;;;;;;;12.40;9.18;;;;;;;23.35;63.26;100776.22;5054705;28;20027;-74
2021/06/29 07:03:18;;;;;;;12.32;9.15;;;;;;;23.38;63.33;100777.97;5054530;28;20096;-74
2021/06/29 07:05:43;;;;;;;14.25;9.32;;;;;;;23.26;63.26;100770.97;5072627;28;20096;-76
2021/06/29 07:08:09;;;;;;;14.40;8.73;;;;;;;23.37;63.84;100774.47;5054528;28;20521;-75
2021/06/29 07:10:34;;;;;;;13.05;8.07;;;;;;;23.78;63.04;100772.59;5072329;28;20037;-75
2021/06/29 07:12:59;;;;;;;9.95;8.18;;;;;;;24.03;62.00;100775.19;5072123;28;20462;-74
2021/06/29 07:15:28;;;;;;;11.02;8.43;;;;;;;23.99;61.81;100773.41;5070689;28;20056;-75
2021/06/29 07:17:53;;;;;;;12.93;7.90;;;;;;;24.21;60.92;100775.09;5050869;28;20033;-75
2021/06/29 07:20:19;;;;;;;9.52;7.70;;;;;;;24.56;60.37;100774.88;5034340;28;20079;-76
2021/06/29 07:22:45;;;;;;;14.20;8.77;;;;;;;25.13;59.29;100771.81;5052018;28;20021;-75
2021/06/29 07:25:10;;;;;;;14.00;9.23;;;;;;;25.47;56.93;100765.38;5052126;28;20037;-75
2021/06/29 07:27:36;;;;;;;18.02;8.20;;;;;;;25.90;55.71;100774.56;5055752;28;20025;-73
2021/06/29 07:30:04;;;;;;;11.15;7.78;;;;;;;25.90;55.10;100780.69;5055976;28;20056;-73
2021/06/29 07:32:30;;;;;;;9.85;7.45;;;;;;;26.44;55.05;100776.50;5054567;28;20502;-69
2021/06/29 07:34:55;;;;;;;9.65;7.32;;;;;;;26.81;53.43;100770.66;5055750;28;20043;-67
2021/06/29 07:37:21;;;;;;;8.38;6.95;;;;;;;26.91;52.90;100770.53;5063699;28;20020;-66
2021/06/29 07:39:46;;;;;;;8.30;6.47;;;;;;;27.07;53.19;100772.03;5063921;28;20108;-68
2021/06/29 07:42:11;;;;;;;9.00;6.97;;;;;;;27.07;52.06;100764.09;5055783;28;20025;-68
2021/06/29 07:44:37;;;;;;;9.80;6.70;;;;;;;27.19;50.83;100775.34;5065414;28;20057;-68
2021/06/29 07:47:02;;;;;;;9.57;7.40;;;;;;;26.65;52.39;100769.16;5054398;28;20115;-68
2021/06/29 07:49:28;;;;;;;9.07;6.40;;;;;;;26.81;53.55;100764.50;5061320;28;20071;-68
2021/06/29 07:51:53;;;;;;;11.02;7.25;;;;;;;26.58;51.62;100762.22;5065247;28;20016;-68
2021/06/29 07:54:19;;;;;;;8.60;6.32;;;;;;;26.86;51.97;100767.09;5068353;28;20500;-68
2021/06/29 07:56:45;;;;;;;10.75;6.65;;;;;;;26.70;51.90;100762.03;5067223;28;20028;-67
2021/06/29 07:59:11;;;;;;;14.50;6.65;;;;;;;26.82;51.73;100764.47;5063012;28;20032;-67
2021/06/29 08:01:36;;;;;;;9.65;6.88;;;;;;;26.91;51.82;100754.66;5062661;28;20474;-67
2021/06/29 08:04:03;;;;;;;7.60;6.80;;;;;;;27.21;50.41;100757.69;5054670;28;20471;-67
2021/06/29 08:06:28;;;;;;;11.85;6.60;;;;;;;27.17;51.03;100750.72;5047060;28;20025;-68
2021/06/29 08:08:53;;;;;;;8.45;6.78;;;;;;;26.89;50.96;100756.47;5053396;28;20069;-68
2021/06/29 08:11:19;;;;;;;7.32;5.85;;;;;;;26.61;51.96;100756.88;5063868;28;20083;-66
2021/06/29 08:13:45;;;;;;;9.73;6.13;;;;;;;26.05;53.14;100768.22;5062152;28;20021;-69
2021/06/29 08:16:11;;;;;;;8.88;6.75;;;;;;;26.05;52.98;100762.94;5053626;28;20047;-68
2021/06/29 08:18:37;;;;;;;9.02;6.68;;;;;;;26.13;53.42;100766.34;5054050;28;20052;-69
2021/06/29 08:21:03;;;;;;;10.65;7.03;;;;;;;25.74;53.81;100758.03;5061796;28;20024;-68
2021/06/29 08:23:29;;;;;;;6.65;5.95;;;;;;;26.39;53.22;100767.78;5053925;28;20028;-68
2021/06/29 08:25:55;;;;;;;10.93;7.50;;;;;;;26.22;52.84;100758.34;5053597;28;20028;-68
2021/06/29 08:28:20;;;;;;;7.80;6.88;;;;;;;26.19;54.16;100761.03;5061796;28;20036;-69
2021/06/29 08:30:47;;;;;;;13.68;6.90;;;;;;;26.45;53.20;100751.84;5063728;28;20523;-69
2021/06/29 08:33:13;;;;;;;6.93;5.65;;;;;;;27.37;51.95;100764.44;5053137;28;20146;-69
2021/06/29 08:35:40;;;;;;;9.68;6.47;;;;;;;27.73;50.46;100765.53;5051912;28;20096;-68
2021/06/29 08:38:06;;;;;;;10.23;7.30;;;;;;;27.96;50.05;100768.56;5052247;28;20024;-69
2021/06/29 08:40:35;;;;;;;8.35;6.80;;;;;;;28.53;48.05;100773.53;5052203;28;20029;-69
2021/06/29 08:43:01;;;;;;;9.65;7.47;;;;;;;28.26;47.29;100770.63;5052080;28;20052;-68
2021/06/29 08:45:27;;;;;;;9.02;6.60;;;;;;;28.28;49.22;100759.09;5051814;28;20079;-68
2021/06/29 08:47:53;;;;;;;9.07;6.50;;;;;;;28.10;48.96;100770.94;5052968;28;20052;-68
2021/06/29 08:50:19;;;;;;;8.93;7.10;;;;;;;27.01;52.52;100756.25;5052881;28;20064;-69
2021/06/29 08:52:45;;;;;;;8.85;6.75;;;;;;;27.00;51.74;100753.66;5052664;28;20390;-69
2021/06/29 08:55:11;;;;;;;11.82;8.05;;;;;;;26.72;52.73;100754.94;5052739;28;20481;-68
2021/06/29 08:57:36;;;;;;;9.48;6.88;;;;;;;26.63;52.65;100750.69;5051485;28;20029;-68
2021/06/29 09:00:11;;;;;;;8.52;7.25;;;;;;;26.51;52.69;100751.75;5052159;28;20390;-68
2021/06/29 09:02:39;;;;;;;8.90;7.25;;;;;;;26.48;53.11;100743.88;5052765;28;20513;-67
2021/06/29 09:05:36;;;;;;;8.70;7.07;;;;;;;26.48;53.22;100746.53;5053914;28;20514;-68
2021/06/29 09:08:13;;;;;;;11.10;8.23;;;;;;;26.13;53.50;100744.34;5051115;28;20604;-68
2021/06/29 09:10:41;;;;;;;8.50;7.60;;;;;;;26.40;53.69;100748.41;5048003;28;20501;-68
2021/06/29 09:13:07;;;;;;;9.15;7.55;;;;;;;26.20;54.31;100751.31;5040872;28;20027;-68
2021/06/29 09:15:36;;;;;;;10.25;7.75;;;;;;;26.14;56.05;100747.00;5061191;28;20044;-67
2021/06/29 09:18:04;;;;;;;12.07;8.80;;;;;;;25.94;54.67;100750.75;5050003;28;20025;-67
2021/06/29 09:20:36;;;;;;;13.87;9.17;;;;;;;25.93;54.36;100749.00;5052735;28;20017;-68
2021/06/29 09:23:17;;;;;;;12.60;8.38;;;;;;;26.30;53.34;100752.09;5041280;28;20263;-68
2021/06/29 09:25:48;;;;;;;11.57;8.38;;;;;;;26.59;52.91;100742.84;5060485;28;20403;-68
2021/06/29 09:28:18;;;;;;;15.80;10.48;;;;;;;26.89;51.14;100745.91;5057795;28;20066;-67
2021/06/29 09:31:00;;;;;;;13.95;10.52;;;;;;;26.76;51.23;100748.72;5042704;28;20029;-67
2021/06/29 09:33:31;;;;;;;16.25;11.48;;;;;;;27.77;48.28;100746.94;5049836;28;20017;-68
2021/06/29 09:35:58;;;;;;;19.40;10.75;;;;;;;29.72;43.72;100749.28;5043749;28;20024;-68
2021/06/29 09:38:31;;;;;;;16.13;11.98;;;;;;;30.74;42.36;100741.75;5046899;28;20128;-67
2021/06/29 09:41:08;;;;;;;15.90;11.32;;;;;;;32.06;38.42;100751.25;5051009;28;20019;-68
2021/06/29 09:43:44;;;;;;;16.50;11.45;;;;;;;32.84;37.90;100742.81;5057456;28;20161;-67
2021/06/29 09:46:12;;;;;;;15.25;11.13;;;;;;;33.61;35.29;100751.06;5051327;28;20109;-67
2021/06/29 09:48:46;;;;;;;17.13;10.50;;;;;;;30.69;40.50;100743.72;5033604;28;20017;-68
2021/06/29 09:51:16;;;;;;;14.65;9.80;;;;;;;29.76;43.33;100749.19;5033287;28;20025;-67
2021/06/29 09:53:43;;;;;;;13.25;9.38;;;;;;;29.57;43.43;100752.38;5051605;28;20477;-67
2021/06/29 09:56:11;;;;;;;17.15;12.30;;;;;;;29.69;41.47;100751.13;5059806;28;20044;-67
2021/06/29 09:58:39;;;;;;;16.52;9.40;;;;;;;29.07;45.44;100753.66;5061445;28;20432;-67
2021/06/29 10:01:05;;;;;;;13.60;8.98;;;;;;;28.19;45.80;100756.66;5060065;28;20029;-68
2021/06/29 10:03:32;;;;;;;13.00;8.82;;;;;;;27.79;47.44;100754.81;5061964;28;20097;-67
2021/06/29 10:06:09;;;;;;;10.82;8.43;;;;;;;28.47;45.50;100748.06;5058561;28;20028;-67
2021/06/29 10:08:36;;;;;;;11.88;9.00;;;;;;;27.85;46.94;100749.41;5032009;28;20063;-67
2021/06/29 10:11:05;;;;;;;10.98;8.55;;;;;;;27.68;48.65;100750.63;5033303;28;20539;-67
2021/06/29 10:13:46;;;;;;;20.50;13.02;;;;;;;26.88;48.60;100747.69;5031457;28;20029;-67
2021/06/29 10:16:13;;;;;;;12.27;9.18;;;;;;;26.42;48.66;100746.63;5047328;28;20045;-67
2021/06/29 10:21:26;;;;;;;7.93;6.38;;;;;;;26.78;50.85;100741.63;4990096;28;20041;-66
2021/06/29 10:23:57;;;;;;;10.55;6.35;;;;;;;26.61;50.40;100743.69;5047024;28;20413;-67
2021/06/29 10:26:24;;;;;;;9.13;6.22;;;;;;;26.05;52.20;100747.13;5055374;28;20032;-67
2021/06/29 10:28:51;;;;;;;8.45;6.53;;;;;;;25.79;53.17;100745.66;5050046;28;20120;-68
2021/06/29 10:31:22;;;;;;;11.05;5.82;;;;;;;25.67;54.76;100741.44;5029910;28;20410;-68
2021/06/29 10:33:48;;;;;;;8.25;5.72;;;;;;;25.37;54.10;100740.84;5048372;28;20031;-67
2021/06/29 10:36:15;;;;;;;8.32;5.60;;;;;;;25.29;54.13;100735.66;5048310;28;20021;-67
2021/06/29 10:38:41;;;;;;;7.72;5.53;;;;;;;25.21;53.72;100733.09;5046104;28;20020;-66
2021/06/29 10:41:09;;;;;;;6.03;4.95;;;;;;;25.29;53.89;100734.78;5030771;28;20107;-67
2021/06/29 10:43:35;;;;;;;7.68;4.70;;;;;;;25.12;53.78;100727.91;5031451;28;20078;-67
2021/06/29 10:46:01;;;;;;;7.80;4.70;;;;;;;25.24;54.26;100721.66;5029208;28;20034;-67
2021/06/29 10:48:28;;;;;;;8.45;5.57;;;;;;;25.26;55.86;100719.88;5049321;28;20013;-66
2021/06/29 10:50:56;;;;;;;7.82;4.80;;;;;;;24.99;56.72;100716.63;5048077;28;20541;-66
2021/06/29 10:53:36;;;;;;;7.53;5.70;;;;;;;24.88;56.46;100723.75;5032193;28;20033;-65
2021/06/29 10:56:04;;;;;;;10.40;7.07;;;;;;;24.46;56.91;100731.97;5049136;28;20497;-65
2021/06/29 10:58:35;;;;;;;16.13;7.05;;;;;;;24.06;59.78;100733.94;5036087;28;20087;-64
2021/06/29 11:01:22;;;;;;;11.45;6.65;;;;;;;23.71;62.00;100736.69;5060942;28;20370;-69
2021/06/29 11:03:49;;;;;;;11.88;7.25;;;;;;;23.96;65.57;100747.13;5068826;28;20055;-70
2021/06/29 11:06:34;;;;;;;11.93;7.20;;;;;;;23.80;65.15;100744.53;5069196;28;20033;-70
2021/06/29 11:09:00;;;;;;;14.05;9.38;;;;;;;23.75;67.88;100743.69;5048252;28;20031;-70
2021/06/29 11:11:31;;;;;;;14.40;11.05;;;;;;;23.48;72.91;100741.16;5052642;28;20021;-70
2021/06/29 11:13:57;;;;;;;16.52;10.35;;;;;;;23.58;69.86;100731.47;5053494;28;20047;-69
2021/06/29 11:16:45;;;;;;;14.10;11.85;;;;;;;23.34;72.38;100728.03;5052754;28;20052;-71
2021/06/29 11:19:11;;;;;;;16.30;11.50;;;;;;;23.50;72.87;100717.47;5062882;28;20082;-70
2021/06/29 11:21:37;;;;;;;15.35;11.25;;;;;;;23.62;73.24;100717.44;5061882;28;20032;-70